Valdez, AK

12:17 AM AKDT on October 23, 2014 (GMT -0800)
Valdez | Change Station
CLOSE
Current Station
Airport
Location: Valdez Airport,
Elevation: 121 ft
Nearby Weather Stations

Elev 121 ft 61.13 °N, 146.25 °W | Updated 21 minutes ago

Overcast
Overcast
39 °F
Feels Like 34 °F
N
7
Wind Variable Wind from NNE

Today
High -- | Low -- °F
--% Chance of Precip.
Yesterday
High -- | Low -- °F
Precip. -- in
8:48 AM 6:08 PM
Waning Crescent, 0% visible
Pressure 29.50 in
Visibility 10.0 miles
Clouds Overcast 12000 ft
Windchill 34 °F
Dew Point 21 °F
Humidity 49%
Rainfall 0.00 in
Snow Depth Not available.
UV 0 out of 12
Pollen Not available.
Air Quality Not available.
Flu Activity Sporadic
METAR PAVD 230756Z 03006KT 10SM OVC120 04/M06 A2950 RMK AO1

More Conditions Fewer Conditions

Pressure 29.50 in
Visibility 10.0 miles
Clouds Overcast 12000 ft
Windchill 34 °F
Dew Point 21 °F
Humidity 49%
Rainfall 0.00 in
Snow Depth Not available.
UV 0 out of 12
Pollen Not available.
Air Quality Not available.
Flu Activity Sporadic
METAR PAVD 230756Z 03006KT 10SM OVC120 04/M06 A2950 RMK AO1

More Conditions Fewer Conditions

10-Day Weather Forecast

Almanac

Astronomy

Oct. 23, 2014 Rise Set
Actual Time 8:48 AM AKDT 6:08 PM AKDT
Civil Twilight 8:03 AM AKDT 6:53 PM AKDT
Nautical Twilight 7:13 AM AKDT 7:43 PM AKDT
Astronomical Twilight 6:23 AM AKDT 8:33 PM AKDT
Moon 8:35 AM AKDT 6:13 PM AKDT
Length of Visible Light 10h 50m
Length of Day
9h 20m
Tomorrow will be 5m 35s shorter.
Waning Crescent, 0% of the Moon is Illuminated
Today
Waning Crescent
Oct 23
New
Oct 30
First Quarter
Nov 6
Full
Nov 14
Last Quarter

Today's Extremes

State Highs State Lows

Community

WunderPhotos

Upload Photos

1,764,195 photos uploaded!

Nearby

Snow Depth

Station Depth Elevation
Upper Tsaina River 8 in 1750 ft
Moraine 0 in 2100 ft
Turnagain Pass 8 in 1880 ft
Grandview 3 in 1100 ft
Indian Pass 7 in 2300 ft

Earthquake Activity

City Distance Mag. Time & Date
No recent earthquake activity has been reported nearby.
Minimum magnitude displayed is 2.5.

Coastal Water Temperatures

Place Temperature
No Stations Reporting

Nearby Weather Stations